Avon, New York
Current Conditions -  °F | °C
As of 3:32 PM on Monday 26 Jan 2015 (Local Time) from KROC Reporting Station
Light Snow Light Snow  
Wind Chill:   Ceiling: 4600
Heat Index: 17°   Visibility: 2mi
Dew Point: 11°   Wind: 13mph
Humidity: 77%   Direction: 80°E
Pressure: 29.93"   Gusts: NA
Location:  42.91°N, 77.75°W
Report Text: KROC 262032Z 08011KT 2SM -SN SCT028 OVC046 M08/M12 A2993 RMK AO2 SFC VIS 6 P0000 T10831117
Loading
Personal Weather Stations






























Interactive Weather Map New forecast layout! Learn more

10-Day Weather Forecast

Advertisements
Track Severe Weather on mobile